Time;durP1;ratioP1;P1;durP2;ratioP2;P2;SDS_P1;SDS_P2;PMS_P1;PMS_P2;Temp;Humidity;BMP_temperature;BMP_pressure;BME280_temperature;BME280_humidity;BME280_pressure;Samples;Min_cycle;Max_cycle;Signal;HPM_P1;HPM_P2
2021/07/12 00:00:22;;;;;;;18.35;16.70;;;;;;;18.36;84.00;100649.59;4895963;28;108696;-76
2021/07/12 00:02:49;;;;;;;14.98;13.40;;;;;;;18.52;83.57;100653.50;4913676;28;100151;-77
2021/07/12 00:05:15;;;;;;;15.30;13.73;;;;;;;18.45;83.71;100653.16;4871784;28;98816;-75
2021/07/12 00:07:41;;;;;;;14.82;13.52;;;;;;;18.43;83.67;100649.13;4902728;28;98419;-77
2021/07/12 00:10:09;;;;;;;17.65;16.13;;;;;;;18.27;84.08;100640.56;4903384;28;98209;-76
2021/07/12 00:12:35;;;;;;;18.45;16.75;;;;;;;18.26;83.94;100637.03;4903025;28;100594;-76
2021/07/12 00:15:07;;;;;;;16.77;14.70;;;;;;;18.40;83.71;100635.00;4886711;28;99589;-69
2021/07/12 00:17:33;;;;;;;14.25;12.85;;;;;;;18.40;83.69;100637.75;4916252;28;102196;-77
2021/07/12 00:19:59;;;;;;;15.57;13.90;;;;;;;18.20;84.06;100629.31;4917490;28;115776;-69
2021/07/12 00:22:25;;;;;;;15.27;13.88;;;;;;;18.20;84.23;100626.59;4889659;28;125001;-76
2021/07/12 00:24:51;;;;;;;16.48;14.82;;;;;;;18.18;83.99;100626.88;4903856;28;127678;-70
2021/07/12 00:27:17;;;;;;;15.38;13.80;;;;;;;18.29;83.62;100624.69;4901351;28;98261;-77
2021/07/12 00:29:47;;;;;;;16.63;15.13;;;;;;;17.98;85.02;100624.69;4889221;28;103731;-76
2021/07/12 00:32:13;;;;;;;17.77;16.02;;;;;;;18.05;84.83;100631.31;4896072;28;99010;-69
2021/07/12 00:34:43;;;;;;;19.15;17.27;;;;;;;17.86;85.64;100628.81;4888755;28;113052;-76
2021/07/12 00:37:09;;;;;;;19.05;17.15;;;;;;;18.02;85.03;100622.97;4887212;28;98811;-76
2021/07/12 00:39:35;;;;;;;21.73;19.52;;;;;;;17.93;84.48;100616.66;4905872;28;98027;-69
2021/07/12 00:42:01;;;;;;;19.88;17.98;;;;;;;17.96;85.29;100618.75;4903709;28;123952;-75
2021/07/12 00:44:27;;;;;;;16.15;14.65;;;;;;;18.02;85.30;100615.56;4893982;28;98084;-69
2021/07/12 00:46:55;;;;;;;17.90;16.25;;;;;;;18.22;84.32;100614.22;4925883;28;127596;-70
2021/07/12 00:49:21;;;;;;;18.40;16.58;;;;;;;18.18;84.27;100605.06;4897258;28;98170;-69
2021/07/12 00:51:48;;;;;;;18.98;17.02;;;;;;;18.18;84.04;100598.81;4899258;28;100532;-77
2021/07/12 00:54:14;;;;;;;19.23;17.42;;;;;;;18.12;84.13;100604.41;4918105;28;114727;-69
2021/07/12 00:56:40;;;;;;;17.33;15.63;;;;;;;18.23;83.75;100599.44;4903204;28;117797;-77
2021/07/12 00:59:06;;;;;;;16.88;15.18;;;;;;;18.26;83.84;100592.56;4907732;28;117184;-77
2021/07/12 01:01:32;;;;;;;16.15;14.68;;;;;;;18.35;83.55;100590.66;4881829;28;108240;-70
2021/07/12 01:03:58;;;;;;;15.30;13.90;;;;;;;18.31;83.22;100586.97;4926003;28;98774;-77
2021/07/12 01:06:24;;;;;;;15.85;14.48;;;;;;;18.38;83.49;100584.59;4885464;28;117535;-70
2021/07/12 01:08:51;;;;;;;14.52;13.23;;;;;;;18.40;83.14;100580.44;4871254;28;117259;-77
2021/07/12 01:11:51;;;;;;;15.10;13.60;;;;;;;18.43;82.81;100570.00;4899965;28;98307;-76
2021/07/12 01:14:58;;;;;;;13.55;12.25;;;;;;;18.44;82.92;100564.22;4889310;28;98231;-77
2021/07/12 01:17:41;;;;;;;13.07;11.98;;;;;;;18.33;83.03;100576.56;4900467;28;98291;-70
2021/07/12 01:20:43;;;;;;;15.50;14.00;;;;;;;18.33;83.45;100573.81;4903801;28;97931;-76
2021/07/12 01:23:51;;;;;;;16.97;15.03;;;;;;;18.19;83.26;100575.84;4899984;28;98986;-76
2021/07/12 01:26:36;;;;;;;14.18;12.75;;;;;;;18.37;83.27;100570.16;4901699;28;98992;-77
2021/07/12 01:29:30;;;;;;;14.18;12.82;;;;;;;18.44;82.77;100566.16;4898807;28;99136;-70
2021/07/12 01:32:10;;;;;;;12.50;11.20;;;;;;;18.42;82.75;100569.19;4887519;28;98014;-77
2021/07/12 01:35:10;;;;;;;13.15;11.85;;;;;;;18.40;82.55;100566.78;4903375;28;97946;-69
2021/07/12 01:38:23;;;;;;;13.45;12.23;;;;;;;18.36;82.59;100563.09;4898341;28;116128;-77
2021/07/12 01:41:29;;;;;;;12.20;11.10;;;;;;;18.15;83.03;100565.56;4898793;28;98023;-70
2021/07/12 01:44:51;;;;;;;11.73;10.77;;;;;;;18.14;82.46;100566.69;4871393;28;98534;-77
2021/07/12 01:48:02;;;;;;;14.13;11.15;;;;;;;17.93;83.39;100568.38;4895950;28;99055;-69
2021/07/12 01:50:54;;;;;;;12.32;11.20;;;;;;;17.59;84.57;100574.41;4900876;28;98487;-77
2021/07/12 01:53:53;;;;;;;13.07;11.73;;;;;;;17.64;83.96;100566.09;4896884;28;98040;-77
2021/07/12 01:56:46;;;;;;;14.20;12.90;;;;;;;17.69;83.99;100573.38;4907040;28;98017;-76
2021/07/12 01:59:23;;;;;;;12.80;11.35;;;;;;;17.84;83.43;100581.16;4891137;28;98268;-76
2021/07/12 02:01:50;;;;;;;12.57;10.27;;;;;;;17.92;83.01;100580.41;4902027;28;98019;-76
2021/07/12 02:04:19;;;;;;;11.48;10.48;;;;;;;17.98;82.71;100573.69;4894986;28;103150;-77
2021/07/12 02:06:46;;;;;;;11.43;10.27;;;;;;;17.97;82.54;100563.13;4891122;28;98511;-76
2021/07/12 02:09:12;;;;;;;11.43;10.32;;;;;;;17.97;82.31;100563.13;4889989;28;111688;-77
2021/07/12 02:11:41;;;;;;;11.75;10.68;;;;;;;18.00;82.40;100549.66;4888696;28;98225;-69
2021/07/12 02:14:07;;;;;;;11.82;10.75;;;;;;;18.00;82.35;100548.81;4906496;28;117472;-77
2021/07/12 02:16:34;;;;;;;11.82;10.82;;;;;;;18.01;82.32;100550.44;4886932;28;117494;-70
2021/07/12 02:19:00;;;;;;;11.60;10.18;;;;;;;18.03;82.12;100540.03;4886160;28;121419;-69
2021/07/12 02:21:32;;;;;;;11.52;10.43;;;;;;;17.69;83.11;100546.13;4905279;28;128938;-69
2021/07/12 02:24:02;;;;;;;;;;;;;;;17.49;83.27;100552.88;4889928;28;98253;-69
2021/07/12 02:26:29;;;;;;;13.05;10.63;;;;;;;17.54;83.10;100548.09;4906330;28;104246;-77
2021/07/12 02:28:56;;;;;;;11.90;10.80;;;;;;;17.71;82.60;100541.94;4905830;28;98973;-77
2021/07/12 02:31:22;;;;;;;11.98;10.90;;;;;;;17.71;82.61;100543.88;4873883;28;102285;-69
2021/07/12 02:33:48;;;;;;;12.35;11.07;;;;;;;17.72;82.57;100542.75;4887190;28;127617;-69
2021/07/12 02:36:15;;;;;;;13.10;10.40;;;;;;;17.72;82.28;100545.47;4907459;28;117096;-76
2021/07/12 02:38:41;;;;;;;12.88;11.27;;;;;;;17.60;82.56;100555.03;4881713;28;120872;-70
2021/07/12 02:41:07;;;;;;;11.60;10.50;;;;;;;17.63;82.53;100556.31;4892695;28;126818;-69
2021/07/12 02:43:34;;;;;;;12.80;11.48;;;;;;;17.63;82.53;100559.06;4895245;28;127512;-77
2021/07/12 02:46:00;;;;;;;12.82;11.63;;;;;;;17.69;82.12;100551.56;4885006;28;98102;-76
2021/07/12 02:48:27;;;;;;;12.27;11.18;;;;;;;17.69;82.18;100543.38;4905548;28;127783;-76
2021/07/12 02:50:54;;;;;;;12.52;11.32;;;;;;;17.51;83.14;100545.19;4905031;28;99059;-77
2021/07/12 02:53:28;;;;;;;13.25;11.93;;;;;;;17.66;82.59;100534.69;4889973;28;98116;-70
2021/07/12 02:55:54;;;;;;;12.00;10.80;;;;;;;17.61;82.46;100537.56;4905677;28;97725;-76
2021/07/12 02:58:20;;;;;;;12.80;11.60;;;;;;;17.46;82.38;100545.34;4897237;28;128027;-70
2021/07/12 03:00:49;;;;;;;12.93;11.73;;;;;;;17.52;82.25;100549.53;4892905;28;127174;-70
2021/07/12 03:03:15;;;;;;;12.57;11.35;;;;;;;17.70;81.64;100553.97;4933676;28;119691;-69
2021/07/12 03:05:42;;;;;;;11.30;10.30;;;;;;;17.51;81.99;100556.09;4885902;28;99196;-76
2021/07/12 03:08:25;;;;;;;12.00;10.82;;;;;;;17.77;81.20;100554.34;4883618;28;126989;-70
2021/07/12 03:10:55;;;;;;;12.63;11.45;;;;;;;17.66;81.13;100567.41;4897293;28;98178;-70
2021/07/12 03:13:37;;;;;;;11.65;10.20;;;;;;;17.61;81.03;100570.28;4917026;28;98249;-76
2021/07/12 03:16:04;;;;;;;11.82;10.73;;;;;;;17.37;81.88;100565.16;4893476;28;106325;-70
2021/07/12 03:18:40;;;;;;;12.40;11.30;;;;;;;17.52;81.79;100574.06;4887698;28;114641;-70
2021/07/12 03:21:06;;;;;;;12.32;11.02;;;;;;;17.42;82.17;100570.47;4904996;28;98510;-76
2021/07/12 03:23:40;;;;;;;13.10;11.80;;;;;;;17.31;81.66;100577.28;4887973;28;115820;-70
2021/07/12 03:26:07;;;;;;;23.55;13.27;;;;;;;16.90;83.48;100580.16;4890407;28;98041;-76
2021/07/12 03:28:34;;;;;;;14.25;12.77;;;;;;;17.02;83.10;100574.19;4891232;28;98290;-76
2021/07/12 03:31:01;;;;;;;16.95;12.90;;;;;;;16.87;83.66;100576.13;4889642;28;115809;-70
2021/07/12 03:33:27;;;;;;;13.45;12.15;;;;;;;16.87;84.04;100581.56;4904167;28;98388;-76
2021/07/12 03:35:54;;;;;;;13.32;11.90;;;;;;;17.12;83.35;100582.91;4884916;28;116453;-70
2021/07/12 03:38:21;;;;;;;11.98;10.75;;;;;;;17.21;83.28;100593.06;4890306;28;98195;-70
2021/07/12 03:40:47;;;;;;;11.95;10.85;;;;;;;17.24;82.91;100587.00;4900967;28;116483;-70
2021/07/12 03:43:20;;;;;;;12.25;11.15;;;;;;;17.26;83.09;100591.03;4899459;28;98112;-75
2021/07/12 03:45:56;;;;;;;12.43;11.23;;;;;;;17.22;82.74;100583.78;4885432;28;97939;-70
2021/07/12 03:48:43;;;;;;;12.38;11.27;;;;;;;17.29;83.02;100578.69;4899983;28;121351;-75
2021/07/12 03:51:23;;;;;;;10.27;9.38;;;;;;;17.52;82.45;100574.84;4903839;28;98857;-70
2021/07/12 03:53:49;;;;;;;10.00;9.10;;;;;;;17.65;81.96;100570.47;4928713;28;117907;-76
2021/07/12 03:56:16;;;;;;;9.55;8.75;;;;;;;17.73;81.44;100572.44;4892814;28;97943;-70
2021/07/12 03:58:42;;;;;;;9.48;8.68;;;;;;;17.77;81.56;100564.47;4860428;28;99779;-70
2021/07/12 04:01:08;;;;;;;9.85;9.05;;;;;;;17.84;81.05;100562.91;4885756;28;108533;-76
2021/07/12 04:03:34;;;;;;;9.80;9.00;;;;;;;17.91;81.03;100556.97;4856692;28;99819;-75
2021/07/12 04:06:01;;;;;;;9.60;8.80;;;;;;;17.95;80.46;100557.94;4884749;28;108807;-77
2021/07/12 04:08:27;;;;;;;9.80;8.93;;;;;;;17.87;81.63;100545.09;4902473;28;100162;-76
2021/07/12 04:10:57;;;;;;;9.02;8.18;;;;;;;17.91;81.74;100563.22;4895151;28;99574;-76
2021/07/12 04:13:23;;;;;;;8.85;8.15;;;;;;;17.90;81.79;100553.44;4886214;28;97912;-75
2021/07/12 04:15:49;;;;;;;9.75;8.38;;;;;;;17.98;81.36;100543.69;4885252;28;115690;-75
2021/07/12 04:18:15;;;;;;;9.57;8.70;;;;;;;17.84;81.95;100546.53;4897932;28;98941;-77
2021/07/12 04:20:42;;;;;;;9.25;8.50;;;;;;;17.84;81.78;100545.72;4900905;28;100343;-70
2021/07/12 04:23:10;;;;;;;9.75;9.02;;;;;;;17.70;82.79;100550.44;4870058;28;98447;-70
2021/07/12 04:25:36;;;;;;;9.43;8.65;;;;;;;17.50;83.06;100551.78;4889581;28;98314;-70
2021/07/12 04:28:05;;;;;;;9.73;8.93;;;;;;;17.43;83.15;100546.75;4900454;28;99590;-75
2021/07/12 04:30:31;;;;;;;9.95;9.05;;;;;;;17.43;83.53;100541.31;4907267;28;104169;-76
2021/07/12 04:33:01;;;;;;;10.02;9.10;;;;;;;17.42;82.94;100540.50;4910111;28;98352;-76
2021/07/12 04:35:27;;;;;;;9.80;8.90;;;;;;;17.48;83.29;100540.38;4903392;28;116266;-76
2021/07/12 04:37:53;;;;;;;10.48;9.52;;;;;;;17.64;82.96;100547.84;4891157;28;100426;-70
2021/07/12 04:40:19;;;;;;;10.05;9.15;;;;;;;17.76;82.89;100541.81;4903067;28;105322;-70
2021/07/12 04:42:46;;;;;;;10.15;9.35;;;;;;;17.77;82.77;100538.00;4903561;28;111619;-70
2021/07/12 04:45:25;;;;;;;9.93;9.02;;;;;;;17.72;83.18;100531.84;4901685;28;98110;-76
2021/07/12 04:47:52;;;;;;;8.55;7.95;;;;;;;17.93;82.38;100532.94;4896418;28;98976;-76
2021/07/12 04:50:18;;;;;;;9.18;8.40;;;;;;;17.98;82.11;100527.34;4894152;28;98933;-77
2021/07/12 04:52:44;;;;;;;9.77;8.88;;;;;;;18.06;82.02;100523.03;4902634;28;127542;-70
2021/07/12 04:55:10;;;;;;;9.75;8.85;;;;;;;18.08;81.99;100523.53;4909769;28;118482;-70
2021/07/12 04:57:37;;;;;;;8.85;8.15;;;;;;;18.12;81.93;100516.31;4868690;28;114013;-70
2021/07/12 05:00:08;;;;;;;11.23;8.30;;;;;;;18.10;82.34;100527.53;4894690;28;98319;-75
2021/07/12 05:02:34;;;;;;;7.95;7.25;;;;;;;18.27;81.44;100518.59;4009740;28;10000526;-70
2021/07/12 05:05:01;;;;;;;8.27;7.55;;;;;;;18.20;81.56;100518.28;4879501;28;104610;-76
2021/07/12 05:07:27;;;;;;;8.27;7.60;;;;;;;18.19;81.64;100524.03;4883821;28;97878;-71
2021/07/12 05:09:54;;;;;;;8.15;7.40;;;;;;;18.30;81.19;100525.34;4887269;28;98104;-75
2021/07/12 05:12:21;;;;;;;8.98;8.13;;;;;;;18.35;81.03;100528.75;4853840;28;99379;-71
2021/07/12 05:14:55;;;;;;;9.10;8.15;;;;;;;18.09;81.62;100536.03;4885872;28;98446;-71
2021/07/12 05:17:21;;;;;;;8.23;7.53;;;;;;;18.34;81.17;100531.78;4886699;28;127309;-76
2021/07/12 05:19:47;;;;;;;7.63;6.75;;;;;;;18.19;81.24;100532.22;4884774;28;97986;-70
2021/07/12 05:22:13;;;;;;;7.93;7.18;;;;;;;18.37;81.18;100531.94;4885715;28;126275;-70
2021/07/12 05:24:39;;;;;;;7.28;6.57;;;;;;;17.93;82.15;100535.66;4885147;28;112871;-76
2021/07/12 05:27:05;;;;;;;8.95;8.18;;;;;;;18.05;82.94;100545.97;4882508;28;124122;-70
2021/07/12 05:29:31;;;;;;;8.88;7.97;;;;;;;18.19;82.04;100552.09;4885138;28;98275;-75
2021/07/12 05:31:58;;;;;;;8.10;7.40;;;;;;;18.36;81.66;100545.91;4855207;28;97900;-76
2021/07/12 05:34:24;;;;;;;9.13;8.32;;;;;;;18.33;81.82;100546.53;4871009;28;100383;-76
2021/07/12 05:36:50;;;;;;;8.60;7.63;;;;;;;18.28;82.12;100550.22;4890510;28;97925;-76
2021/07/12 05:39:16;;;;;;;10.00;9.15;;;;;;;18.21;82.87;100557.25;4872469;28;115207;-70
2021/07/12 05:41:44;;;;;;;11.07;9.98;;;;;;;18.20;82.56;100552.94;4890517;28;121391;-76
2021/07/12 05:44:10;;;;;;;10.82;9.82;;;;;;;18.20;83.08;100561.91;4869917;28;98546;-70
2021/07/12 05:46:40;;;;;;;11.40;10.30;;;;;;;18.18;82.51;100557.88;4888006;28;127755;-71
2021/07/12 05:49:06;;;;;;;9.57;8.77;;;;;;;18.19;82.79;100556.75;4887320;28;98259;-71
2021/07/12 05:51:33;;;;;;;10.35;9.45;;;;;;;18.13;82.78;100554.19;4886453;28;98223;-76
2021/07/12 05:53:59;;;;;;;9.95;9.10;;;;;;;18.22;82.79;100562.38;4887586;28;122936;-71
2021/07/12 05:56:25;;;;;;;11.25;10.23;;;;;;;18.08;83.19;100562.50;4888340;28;98656;-70
2021/07/12 05:58:51;;;;;;;11.07;9.95;;;;;;;18.09;82.70;100564.13;4884265;28;98186;-71
2021/07/12 06:01:17;;;;;;;10.95;9.82;;;;;;;18.09;82.50;100558.66;4884298;28;128670;-71
2021/07/12 06:03:43;;;;;;;9.20;8.27;;;;;;;18.18;81.74;100568.78;4868292;28;128059;-70
2021/07/12 06:06:09;;;;;;;9.27;8.38;;;;;;;18.18;82.88;100566.88;4901288;28;127870;-71
2021/07/12 06:08:36;;;;;;;10.38;9.35;;;;;;;18.17;83.19;100567.19;4871277;28;108886;-71
2021/07/12 06:11:02;;;;;;;10.73;9.63;;;;;;;17.84;83.87;100576.53;4871600;28;97861;-76
2021/07/12 06:13:28;;;;;;;11.10;10.10;;;;;;;17.94;83.96;100575.44;4870278;28;99320;-71
2021/07/12 06:15:54;;;;;;;11.27;9.93;;;;;;;18.03;84.12;100579.00;4888191;28;116876;-71
2021/07/12 06:18:20;;;;;;;11.10;10.15;;;;;;;17.84;84.63;100570.25;4870202;28;98164;-71
2021/07/12 06:20:47;;;;;;;14.35;12.10;;;;;;;18.03;84.31;100561.84;4885255;28;126271;-71
2021/07/12 06:23:15;;;;;;;11.23;10.07;;;;;;;17.94;83.94;100558.28;4896170;28;99967;-71
2021/07/12 06:25:42;;;;;;;11.20;10.18;;;;;;;18.24;83.29;100560.16;4887005;28;99383;-70
2021/07/12 06:28:09;;;;;;;11.05;9.95;;;;;;;18.38;82.52;100538.19;4888066;28;98060;-71
2021/07/12 06:30:35;;;;;;;12.25;11.05;;;;;;;18.50;82.49;100551.22;4870945;28;98403;-71
2021/07/12 06:33:02;;;;;;;9.70;8.82;;;;;;;18.75;80.80;100545.03;4853715;28;101096;-71
2021/07/12 06:35:28;;;;;;;9.80;8.77;;;;;;;19.03;79.38;100540.06;4868578;28;98144;-76
2021/07/12 06:37:54;;;;;;;9.40;8.27;;;;;;;19.16;78.62;100540.22;4886571;28;98193;-76
2021/07/12 06:40:22;;;;;;;9.52;8.52;;;;;;;19.22;78.31;100550.66;4889444;28;123868;-71
2021/07/12 06:42:49;;;;;;;9.07;8.18;;;;;;;19.24;78.86;100548.41;4889580;28;97709;-71
2021/07/12 06:45:21;;;;;;;9.35;8.38;;;;;;;19.24;79.38;100550.31;4887037;28;98096;-75
2021/07/12 06:47:48;;;;;;;10.30;9.15;;;;;;;19.55;78.24;100556.38;4872593;28;98090;-70
2021/07/12 06:50:14;;;;;;;10.40;9.48;;;;;;;19.20;78.93;100561.09;4870187;28;98018;-70
2021/07/12 06:52:40;;;;;;;9.68;8.70;;;;;;;19.53;78.36;100555.09;4887114;28;98918;-76
2021/07/12 06:55:07;;;;;;;8.35;7.68;;;;;;;19.71;78.31;100547.69;4884827;28;117137;-76
2021/07/12 06:57:33;;;;;;;9.82;8.10;;;;;;;19.70;78.54;100551.56;4882890;28;98083;-70
2021/07/12 06:59:59;;;;;;;8.10;7.40;;;;;;;19.67;77.98;100552.19;4863566;28;125350;-70
2021/07/12 07:02:25;;;;;;;7.35;6.65;;;;;;;19.16;78.64;100538.28;4883000;28;127886;-70
2021/07/12 07:04:51;;;;;;;8.43;6.85;;;;;;;19.56;78.16;100544.31;4880577;28;126603;-70
2021/07/12 07:07:18;;;;;;;7.95;7.25;;;;;;;19.75;77.25;100529.50;4884538;28;98015;-70
2021/07/12 07:09:44;;;;;;;7.68;6.97;;;;;;;20.00;77.48;100527.78;4882996;28;128337;-71
2021/07/12 07:12:10;;;;;;;7.28;6.63;;;;;;;20.06;77.62;100531.94;4866077;28;99404;-71
2021/07/12 07:14:36;;;;;;;7.68;6.97;;;;;;;20.29;76.92;100533.28;4881203;28;116524;-77
2021/07/12 07:17:02;;;;;;;7.10;6.38;;;;;;;20.46;74.54;100526.06;4886421;28;98638;-76
2021/07/12 07:19:28;;;;;;;7.57;6.38;;;;;;;21.01;72.60;100520.34;4882871;28;118273;-77
2021/07/12 07:21:55;;;;;;;5.72;5.10;;;;;;;21.04;70.20;100513.41;4883363;28;125782;-71
2021/07/12 07:24:21;;;;;;;5.68;5.13;;;;;;;21.08;70.97;100520.63;4880754;28;110642;-70
2021/07/12 07:26:48;;;;;;;4.70;4.10;;;;;;;20.56;71.17;100526.53;4885540;28;97757;-76
2021/07/12 07:29:15;;;;;;;4.82;3.80;;;;;;;20.37;72.08;100517.94;4847501;28;98288;-70
2021/07/12 07:31:41;;;;;;;4.47;3.33;;;;;;;19.94;72.40;100518.97;4880432;28;98586;-76
2021/07/12 07:34:08;;;;;;;4.60;3.70;;;;;;;20.01;73.31;100521.19;4850826;28;108139;-70
2021/07/12 07:36:34;;;;;;;3.72;3.42;;;;;;;20.70;71.83;100520.78;4884557;28;99916;-70
2021/07/12 07:39:00;;;;;;;5.80;3.22;;;;;;;20.55;72.90;100524.94;4882472;28;98627;-70
2021/07/12 07:41:26;;;;;;;4.20;3.80;;;;;;;20.84;71.99;100528.75;4883745;28;127644;-77
2021/07/12 07:43:52;;;;;;;4.78;3.78;;;;;;;21.12;70.49;100514.47;4865027;28;127018;-70
2021/07/12 07:46:18;;;;;;;4.40;3.50;;;;;;;21.34;70.02;100503.16;4883776;28;117751;-71
2021/07/12 07:48:45;;;;;;;4.47;3.13;;;;;;;21.88;68.92;100510.44;4882465;28;99389;-77
2021/07/12 07:51:11;;;;;;;4.43;3.67;;;;;;;22.11;67.42;100514.31;4897744;28;115893;-78
2021/07/12 07:53:37;;;;;;;4.18;3.67;;;;;;;22.30;67.61;100519.25;4865448;28;98371;-70
2021/07/12 07:56:04;;;;;;;3.88;3.45;;;;;;;22.71;64.68;100507.16;4881476;28;97935;-70
2021/07/12 07:58:30;;;;;;;4.20;3.10;;;;;;;22.99;63.07;100504.47;4882086;28;119096;-70
2021/07/12 08:00:56;;;;;;;3.70;2.90;;;;;;;23.44;62.59;100502.50;4883774;28;98055;-70
2021/07/12 08:03:23;;;;;;;3.05;2.75;;;;;;;24.22;59.48;100507.22;4880216;28;127991;-77
2021/07/12 08:05:49;;;;;;;3.85;2.90;;;;;;;24.25;58.53;100502.94;4845495;28;117017;-77
2021/07/12 08:08:15;;;;;;;3.33;2.70;;;;;;;26.24;54.42;100498.81;4861976;28;128034;-77
2021/07/12 08:10:41;;;;;;;4.82;2.90;;;;;;;26.35;53.92;100514.38;4884493;28;114715;-71
2021/07/12 08:13:09;;;;;;;3.15;2.67;;;;;;;26.66;52.51;100501.41;4896226;28;128099;-71
2021/07/12 08:15:36;;;;;;;2.40;1.80;;;;;;;25.40;52.60;100511.66;4881904;28;98063;-71
2021/07/12 08:18:04;;;;;;;3.88;2.00;;;;;;;24.43;58.93;100523.44;4881189;28;116404;-71
2021/07/12 08:20:30;;;;;;;3.90;2.30;;;;;;;24.72;55.32;100513.06;4882875;28;129207;-70
2021/07/12 08:22:56;;;;;;;3.05;2.40;;;;;;;23.96;58.18;100506.97;4879789;28;127438;-77
2021/07/12 08:25:22;;;;;;;4.60;2.22;;;;;;;24.47;58.95;100496.75;4849467;28;117839;-70
2021/07/12 08:27:49;;;;;;;3.90;3.13;;;;;;;23.84;61.20;100491.34;4882658;28;99224;-71
2021/07/12 08:30:18;;;;;;;4.18;2.72;;;;;;;24.22;59.20;100493.44;4883310;28;98215;-77
2021/07/12 08:32:45;;;;;;;3.00;2.70;;;;;;;23.80;59.27;100492.44;4883821;28;98112;-77
2021/07/12 08:35:12;;;;;;;3.53;2.38;;;;;;;23.43;61.26;100490.72;4865334;28;100780;-70
2021/07/12 08:37:38;;;;;;;2.90;2.33;;;;;;;23.86;60.16;100488.28;4881454;28;98555;-77
2021/07/12 08:40:06;;;;;;;3.05;2.10;;;;;;;24.39;59.90;100488.72;4863952;28;99813;-77
2021/07/12 08:42:32;;;;;;;3.10;2.50;;;;;;;25.01;58.44;100488.81;4880882;28;114942;-71
2021/07/12 08:44:58;;;;;;;3.08;2.60;;;;;;;25.22;56.34;100498.31;4879805;28;119026;-71
2021/07/12 08:47:24;;;;;;;3.10;2.80;;;;;;;24.81;57.90;100497.09;4882309;28;98272;-70
2021/07/12 08:49:50;;;;;;;3.40;2.90;;;;;;;24.15;58.72;100501.53;4883315;28;126059;-77
2021/07/12 08:52:16;;;;;;;3.03;2.50;;;;;;;24.40;58.19;100501.31;4865626;28;124849;-71
2021/07/12 08:54:43;;;;;;;4.40;3.00;;;;;;;25.31;57.00;100497.28;4882074;28;98216;-77
2021/07/12 08:57:10;;;;;;;2.80;2.60;;;;;;;26.16;52.33;100501.47;4882928;28;98004;-77
2021/07/12 08:59:41;;;;;;;3.38;2.80;;;;;;;25.80;53.68;100486.34;4864379;28;98741;-78
2021/07/12 09:02:16;;;;;;;2.40;2.00;;;;;;;25.01;54.27;100488.81;4881083;28;98231;-76
2021/07/12 09:04:47;;;;;;;2.50;2.28;;;;;;;25.42;54.96;100484.47;4896047;28;108408;-70
2021/07/12 09:07:19;;;;;;;3.53;2.67;;;;;;;24.98;56.07;100482.84;4880683;28;99269;-70
2021/07/12 09:10:06;;;;;;;2.50;2.30;;;;;;;25.09;56.67;100477.59;4880297;28;99135;-77
2021/07/12 09:12:48;;;;;;;2.63;2.42;;;;;;;24.97;57.79;100478.50;4883840;28;98766;-69
2021/07/12 09:15:19;;;;;;;2.60;2.40;;;;;;;23.48;57.09;100475.91;4880025;28;97952;-70
2021/07/12 09:17:48;;;;;;;2.20;2.10;;;;;;;23.52;59.32;100477.56;4864186;28;104815;-69
2021/07/12 09:20:31;;;;;;;3.15;2.42;;;;;;;22.97;61.35;100476.53;4882311;28;98029;-77
2021/07/12 09:22:58;;;;;;;2.80;2.60;;;;;;;23.96;59.37;100466.47;4881426;28;116902;-69
2021/07/12 09:25:30;;;;;;;2.83;2.63;;;;;;;24.29;59.07;100473.53;4883197;28;97935;-76
2021/07/12 09:27:56;;;;;;;3.30;3.00;;;;;;;24.38;58.46;100478.84;4880776;28;112138;-70
2021/07/12 09:30:22;;;;;;;3.10;2.90;;;;;;;23.80;61.00;100471.22;4879757;28;99847;-77
2021/07/12 09:32:51;;;;;;;2.85;2.53;;;;;;;23.76;60.29;100470.31;4881539;28;98039;-77
2021/07/12 09:35:20;;;;;;;2.70;2.50;;;;;;;24.82;57.71;100464.81;4863779;28;98127;-77
2021/07/12 09:37:57;;;;;;;2.63;2.42;;;;;;;24.52;57.94;100462.63;4880153;28;118590;-77
2021/07/12 09:40:24;;;;;;;3.08;2.50;;;;;;;24.06;58.01;100465.16;4884998;28;107514;-76
2021/07/12 09:42:51;;;;;;;2.78;2.58;;;;;;;24.67;58.53;100466.47;4867496;28;125355;-70
2021/07/12 09:45:22;;;;;;;3.15;2.55;;;;;;;24.17;59.09;100459.88;4879767;28;97909;-70
2021/07/12 09:47:49;;;;;;;3.30;2.72;;;;;;;24.35;59.50;100474.03;4881428;28;98634;-70
2021/07/12 09:50:23;;;;;;;3.42;2.72;;;;;;;24.20;59.04;100470.97;4881481;28;98900;-77
2021/07/12 09:52:58;;;;;;;3.55;2.88;;;;;;;23.92;59.72;100467.56;4883742;28;98332;-70
2021/07/12 09:55:25;;;;;;;3.50;2.50;;;;;;;23.48;59.85;100467.66;4885170;28;98375;-76
2021/07/12 09:58:15;;;;;;;3.10;2.80;;;;;;;22.66;62.85;100462.66;4898646;28;98571;-69
2021/07/12 10:01:03;;;;;;;3.28;2.75;;;;;;;22.54;64.28;100461.53;4864327;28;97807;-76
2021/07/12 10:03:29;;;;;;;2.88;2.60;;;;;;;23.35;63.06;100453.19;4880983;28;98299;-76
2021/07/12 10:05:55;;;;;;;3.00;2.67;;;;;;;23.92;58.87;100453.78;4848156;28;108198;-76
2021/07/12 10:08:21;;;;;;;2.97;2.67;;;;;;;26.56;52.33;100439.28;4879193;28;128833;-76
2021/07/12 10:10:48;;;;;;;2.72;2.25;;;;;;;27.13;50.28;100455.75;4847596;28;119130;-77
2021/07/12 10:13:14;;;;;;;2.53;2.33;;;;;;;27.54;49.83;100453.75;4879777;28;98125;-77
2021/07/12 10:15:41;;;;;;;3.85;2.42;;;;;;;29.11;45.05;100460.19;4880962;28;98228;-78
2021/07/12 10:18:07;;;;;;;2.80;2.60;;;;;;;28.36;47.49;100451.59;4850708;28;108286;-77
2021/07/12 10:20:34;;;;;;;2.78;2.58;;;;;;;28.10;48.03;100449.06;4866741;28;98094;-77
2021/07/12 10:23:05;;;;;;;2.60;2.40;;;;;;;27.42;48.96;100454.03;4867506;28;98066;-77
2021/07/12 10:25:32;;;;;;;4.00;2.47;;;;;;;29.42;46.10;100445.94;4867681;28;98176;-77
2021/07/12 10:28:06;;;;;;;2.60;2.40;;;;;;;31.48;41.38;100443.66;4884630;28;98639;-77
2021/07/12 10:30:35;;;;;;;4.03;2.60;;;;;;;32.26;39.10;100434.53;4884142;28;97845;-71
2021/07/12 10:33:06;;;;;;;2.60;2.40;;;;;;;32.64;37.88;100431.69;4882878;28;98212;-77
2021/07/12 10:35:45;;;;;;;2.50;2.30;;;;;;;33.22;38.15;100429.69;4884781;28;104895;-71
2021/07/12 10:38:38;;;;;;;2.30;2.10;;;;;;;32.38;38.09;100413.66;4883699;28;97820;-76
2021/07/12 10:41:26;;;;;;;2.50;2.30;;;;;;;34.17;35.05;100410.88;4883595;28;98458;-70
2021/07/12 10:43:57;;;;;;;3.00;2.28;;;;;;;33.94;34.50;100408.91;4885025;28;98274;-77
2021/07/12 10:46:29;;;;;;;2.33;2.13;;;;;;;33.76;35.11;100409.25;4884654;28;97937;-77
2021/07/12 10:48:58;;;;;;;2.40;2.20;;;;;;;28.57;45.08;100405.72;4883642;28;98963;-70
2021/07/12 10:51:32;;;;;;;2.83;2.40;;;;;;;27.10;50.04;100399.22;4883399;28;117509;-75
2021/07/12 10:54:11;;;;;;;4.82;2.60;;;;;;;26.63;49.96;100397.13;4884289;28;98782;-69
2021/07/12 10:56:56;;;;;;;2.60;2.40;;;;;;;25.38;54.17;100387.84;4868228;28;98123;-76
2021/07/12 10:59:31;;;;;;;2.95;2.63;;;;;;;24.87;56.01;100395.59;4883153;28;98926;-70
2021/07/12 11:01:59;;;;;;;3.30;3.00;;;;;;;24.63;55.81;100397.53;4884406;28;98876;-76
2021/07/12 11:04:45;;;;;;;3.05;2.83;;;;;;;24.33;56.99;100385.50;4883713;28;97962;-76
2021/07/12 11:07:14;;;;;;;3.05;2.80;;;;;;;23.70;60.60;100389.22;4868789;28;98201;-76
2021/07/12 11:09:56;;;;;;;3.35;2.80;;;;;;;23.78;60.21;100391.00;4866823;28;98640;-76
2021/07/12 11:12:48;;;;;;;3.40;3.10;;;;;;;24.07;59.44;100394.38;4882673;28;98809;-76
2021/07/12 11:15:21;;;;;;;3.60;2.90;;;;;;;24.04;59.33;100395.09;4869820;28;98006;-76
2021/07/12 11:18:02;;;;;;;3.13;2.83;;;;;;;23.60;60.66;100392.50;4882828;28;97919;-75
2021/07/12 11:20:51;;;;;;;3.30;3.10;;;;;;;23.93;60.68;100392.91;4879986;28;98278;-70
2021/07/12 11:23:42;;;;;;;4.53;3.60;;;;;;;23.81;61.55;100383.94;4883124;28;98362;-76
2021/07/12 11:26:20;;;;;;;3.60;3.30;;;;;;;24.01;59.37;100385.59;4883945;28;97871;-76
2021/07/12 11:28:59;;;;;;;3.60;3.30;;;;;;;23.24;60.62;100386.13;4883272;28;97667;-69
2021/07/12 11:31:55;;;;;;;4.80;3.10;;;;;;;23.06;62.13;100388.41;4881494;28;99131;-69